sensor_id;sensor_type;location;lat;lon;timestamp;P1;durP1;ratioP1;P2;durP2;ratioP2
830;SDS011;397;50.564;7.272;2023-04-06T00:01:06;7.75;;;6.45;;
830;SDS011;397;50.564;7.272;2023-04-06T00:03:34;7.00;;;6.17;;
830;SDS011;397;50.564;7.272;2023-04-06T00:06:01;9.78;;;6.62;;
830;SDS011;397;50.564;7.272;2023-04-06T00:08:29;8.05;;;6.33;;
830;SDS011;397;50.564;7.272;2023-04-06T00:10:57;8.37;;;7.00;;
830;SDS011;397;50.564;7.272;2023-04-06T00:13:24;9.60;;;7.75;;
830;SDS011;397;50.564;7.272;2023-04-06T00:15:52;8.38;;;7.37;;
830;SDS011;397;50.564;7.272;2023-04-06T00:18:19;10.00;;;8.00;;
830;SDS011;397;50.564;7.272;2023-04-06T00:20:47;8.88;;;7.97;;
830;SDS011;397;50.564;7.272;2023-04-06T00:23:14;10.58;;;8.13;;
830;SDS011;397;50.564;7.272;2023-04-06T00:25:42;9.30;;;8.30;;
830;SDS011;397;50.564;7.272;2023-04-06T00:28:09;9.70;;;8.30;;
830;SDS011;397;50.564;7.272;2023-04-06T00:30:37;9.88;;;7.70;;
830;SDS011;397;50.564;7.272;2023-04-06T00:33:04;8.97;;;7.00;;
830;SDS011;397;50.564;7.272;2023-04-06T00:35:32;8.63;;;7.83;;
830;SDS011;397;50.564;7.272;2023-04-06T00:37:59;10.38;;;7.55;;
830;SDS011;397;50.564;7.272;2023-04-06T00:40:27;10.68;;;8.10;;
830;SDS011;397;50.564;7.272;2023-04-06T00:42:54;9.80;;;7.92;;
830;SDS011;397;50.564;7.272;2023-04-06T00:45:22;10.25;;;9.30;;
830;SDS011;397;50.564;7.272;2023-04-06T00:47:51;9.10;;;8.20;;
830;SDS011;397;50.564;7.272;2023-04-06T00:50:19;11.10;;;8.50;;
830;SDS011;397;50.564;7.272;2023-04-06T00:52:46;11.08;;;9.35;;
830;SDS011;397;50.564;7.272;2023-04-06T00:55:14;11.70;;;9.35;;
830;SDS011;397;50.564;7.272;2023-04-06T00:57:41;11.73;;;9.98;;
830;SDS011;397;50.564;7.272;2023-04-06T01:00:09;11.10;;;9.98;;
830;SDS011;397;50.564;7.272;2023-04-06T01:02:38;11.20;;;10.10;;
830;SDS011;397;50.564;7.272;2023-04-06T01:05:06;11.38;;;10.20;;
830;SDS011;397;50.564;7.272;2023-04-06T01:07:34;11.10;;;10.00;;
830;SDS011;397;50.564;7.272;2023-04-06T01:10:02;12.65;;;10.90;;
830;SDS011;397;50.564;7.272;2023-04-06T01:12:30;15.25;;;12.50;;
830;SDS011;397;50.564;7.272;2023-04-06T01:14:57;16.32;;;14.55;;
830;SDS011;397;50.564;7.272;2023-04-06T01:17:25;17.00;;;15.20;;
830;SDS011;397;50.564;7.272;2023-04-06T01:19:54;18.40;;;16.50;;
830;SDS011;397;50.564;7.272;2023-04-06T01:22:22;17.02;;;14.55;;
830;SDS011;397;50.564;7.272;2023-04-06T01:24:51;14.60;;;12.65;;
830;SDS011;397;50.564;7.272;2023-04-06T01:27:18;14.70;;;12.60;;
830;SDS011;397;50.564;7.272;2023-04-06T01:29:46;13.73;;;12.20;;
830;SDS011;397;50.564;7.272;2023-04-06T01:32:14;11.38;;;10.10;;
830;SDS011;397;50.564;7.272;2023-04-06T01:34:41;12.50;;;11.25;;
830;SDS011;397;50.564;7.272;2023-04-06T01:37:08;13.03;;;11.73;;
830;SDS011;397;50.564;7.272;2023-04-06T01:39:36;13.85;;;12.13;;
830;SDS011;397;50.564;7.272;2023-04-06T01:42:04;14.38;;;12.43;;
830;SDS011;397;50.564;7.272;2023-04-06T01:44:31;12.30;;;11.10;;
830;SDS011;397;50.564;7.272;2023-04-06T01:46:59;13.50;;;12.10;;
830;SDS011;397;50.564;7.272;2023-04-06T01:49:26;13.43;;;12.03;;
830;SDS011;397;50.564;7.272;2023-04-06T01:51:54;14.25;;;12.40;;
830;SDS011;397;50.564;7.272;2023-04-06T01:54:21;12.95;;;11.33;;
830;SDS011;397;50.564;7.272;2023-04-06T01:56:49;11.40;;;10.30;;
830;SDS011;397;50.564;7.272;2023-04-06T01:59:18;10.65;;;9.58;;
830;SDS011;397;50.564;7.272;2023-04-06T02:01:45;10.90;;;9.65;;
830;SDS011;397;50.564;7.272;2023-04-06T02:04:13;11.85;;;10.65;;
830;SDS011;397;50.564;7.272;2023-04-06T02:06:41;12.98;;;11.30;;
830;SDS011;397;50.564;7.272;2023-04-06T02:09:08;12.20;;;10.40;;
830;SDS011;397;50.564;7.272;2023-04-06T02:11:36;11.95;;;10.75;;
830;SDS011;397;50.564;7.272;2023-04-06T02:14:03;12.70;;;11.30;;
830;SDS011;397;50.564;7.272;2023-04-06T02:16:31;12.05;;;10.75;;
830;SDS011;397;50.564;7.272;2023-04-06T02:18:58;16.37;;;13.08;;
830;SDS011;397;50.564;7.272;2023-04-06T02:21:26;14.65;;;13.15;;
830;SDS011;397;50.564;7.272;2023-04-06T02:23:53;14.70;;;12.75;;
830;SDS011;397;50.564;7.272;2023-04-06T02:26:21;13.53;;;11.83;;
830;SDS011;397;50.564;7.272;2023-04-06T02:28:48;14.87;;;13.20;;
830;SDS011;397;50.564;7.272;2023-04-06T02:31:16;14.50;;;13.00;;
830;SDS011;397;50.564;7.272;2023-04-06T02:33:43;14.60;;;13.03;;
830;SDS011;397;50.564;7.272;2023-04-06T02:36:11;13.65;;;12.20;;
830;SDS011;397;50.564;7.272;2023-04-06T02:38:38;14.47;;;12.30;;
830;SDS011;397;50.564;7.272;2023-04-06T02:41:05;14.53;;;12.20;;
830;SDS011;397;50.564;7.272;2023-04-06T02:43:33;12.98;;;11.55;;
830;SDS011;397;50.564;7.272;2023-04-06T02:46:00;13.72;;;11.73;;
830;SDS011;397;50.564;7.272;2023-04-06T02:48:28;13.80;;;12.40;;
830;SDS011;397;50.564;7.272;2023-04-06T02:50:56;14.38;;;12.88;;
830;SDS011;397;50.564;7.272;2023-04-06T02:53:23;15.25;;;13.65;;
830;SDS011;397;50.564;7.272;2023-04-06T02:55:50;14.35;;;12.85;;
830;SDS011;397;50.564;7.272;2023-04-06T02:58:18;14.83;;;13.05;;
830;SDS011;397;50.564;7.272;2023-04-06T03:00:45;13.70;;;12.30;;
830;SDS011;397;50.564;7.272;2023-04-06T03:03:13;14.33;;;12.88;;
830;SDS011;397;50.564;7.272;2023-04-06T03:05:40;14.98;;;12.88;;
830;SDS011;397;50.564;7.272;2023-04-06T03:08:08;13.80;;;11.77;;
830;SDS011;397;50.564;7.272;2023-04-06T03:10:36;13.32;;;11.93;;
830;SDS011;397;50.564;7.272;2023-04-06T03:13:03;15.38;;;13.18;;
830;SDS011;397;50.564;7.272;2023-04-06T03:15:31;14.68;;;12.70;;
830;SDS011;397;50.564;7.272;2023-04-06T03:17:58;14.10;;;12.25;;
830;SDS011;397;50.564;7.272;2023-04-06T03:20:26;13.68;;;12.37;;
830;SDS011;397;50.564;7.272;2023-04-06T03:22:53;15.30;;;13.70;;
830;SDS011;397;50.564;7.272;2023-04-06T03:25:21;15.03;;;13.63;;
830;SDS011;397;50.564;7.272;2023-04-06T03:27:49;13.93;;;12.43;;
830;SDS011;397;50.564;7.272;2023-04-06T03:30:17;15.23;;;13.60;;
830;SDS011;397;50.564;7.272;2023-04-06T03:32:44;14.28;;;12.78;;
830;SDS011;397;50.564;7.272;2023-04-06T03:35:12;14.45;;;12.95;;
830;SDS011;397;50.564;7.272;2023-04-06T03:37:39;14.83;;;13.32;;
830;SDS011;397;50.564;7.272;2023-04-06T03:40:07;13.70;;;12.30;;
830;SDS011;397;50.564;7.272;2023-04-06T03:42:35;16.42;;;12.88;;
830;SDS011;397;50.564;7.272;2023-04-06T03:45:03;14.90;;;13.22;;
830;SDS011;397;50.564;7.272;2023-04-06T03:47:30;14.40;;;12.93;;
830;SDS011;397;50.564;7.272;2023-04-06T03:49:58;15.20;;;13.60;;
830;SDS011;397;50.564;7.272;2023-04-06T03:52:26;15.15;;;13.03;;
830;SDS011;397;50.564;7.272;2023-04-06T03:54:53;15.68;;;13.78;;
830;SDS011;397;50.564;7.272;2023-04-06T03:57:21;14.43;;;12.95;;
830;SDS011;397;50.564;7.272;2023-04-06T03:59:48;14.68;;;13.18;;
830;SDS011;397;50.564;7.272;2023-04-06T04:02:16;14.53;;;13.03;;
830;SDS011;397;50.564;7.272;2023-04-06T04:04:43;14.13;;;12.63;;
830;SDS011;397;50.564;7.272;2023-04-06T04:07:11;13.50;;;12.20;;
830;SDS011;397;50.564;7.272;2023-04-06T04:09:38;12.33;;;11.12;;
830;SDS011;397;50.564;7.272;2023-04-06T04:12:06;13.85;;;11.93;;
830;SDS011;397;50.564;7.272;2023-04-06T04:14:33;13.25;;;11.85;;
830;SDS011;397;50.564;7.272;2023-04-06T04:17:01;14.65;;;12.15;;
830;SDS011;397;50.564;7.272;2023-04-06T04:19:28;13.50;;;12.10;;
830;SDS011;397;50.564;7.272;2023-04-06T04:21:56;14.87;;;12.93;;
830;SDS011;397;50.564;7.272;2023-04-06T04:24:23;13.30;;;12.00;;
830;SDS011;397;50.564;7.272;2023-04-06T04:26:51;14.00;;;12.50;;
830;SDS011;397;50.564;7.272;2023-04-06T04:29:18;13.90;;;11.90;;
830;SDS011;397;50.564;7.272;2023-04-06T04:31:46;14.53;;;13.03;;
830;SDS011;397;50.564;7.272;2023-04-06T04:34:15;14.90;;;13.17;;
830;SDS011;397;50.564;7.272;2023-04-06T04:36:42;15.05;;;12.93;;
830;SDS011;397;50.564;7.272;2023-04-06T04:39:10;14.23;;;12.60;;
830;SDS011;397;50.564;7.272;2023-04-06T04:41:37;14.63;;;13.03;;
830;SDS011;397;50.564;7.272;2023-04-06T04:44:05;15.20;;;13.60;;
830;SDS011;397;50.564;7.272;2023-04-06T04:46:33;16.90;;;12.43;;
830;SDS011;397;50.564;7.272;2023-04-06T04:49:00;14.23;;;12.73;;
830;SDS011;397;50.564;7.272;2023-04-06T04:51:27;13.50;;;12.17;;
830;SDS011;397;50.564;7.272;2023-04-06T04:53:56;16.05;;;14.47;;
830;SDS011;397;50.564;7.272;2023-04-06T04:56:24;14.50;;;13.10;;
830;SDS011;397;50.564;7.272;2023-04-06T04:58:53;15.23;;;13.72;;
830;SDS011;397;50.564;7.272;2023-04-06T05:01:20;14.98;;;13.08;;
830;SDS011;397;50.564;7.272;2023-04-06T05:03:48;13.05;;;11.80;;
830;SDS011;397;50.564;7.272;2023-04-06T05:06:15;13.28;;;11.90;;
830;SDS011;397;50.564;7.272;2023-04-06T05:08:44;13.08;;;11.68;;
830;SDS011;397;50.564;7.272;2023-04-06T05:11:12;12.30;;;11.00;;
830;SDS011;397;50.564;7.272;2023-04-06T05:13:39;10.65;;;9.55;;
830;SDS011;397;50.564;7.272;2023-04-06T05:16:07;10.58;;;9.55;;
830;SDS011;397;50.564;7.272;2023-04-06T05:18:34;12.43;;;10.90;;
830;SDS011;397;50.564;7.272;2023-04-06T05:21:02;13.08;;;11.25;;
830;SDS011;397;50.564;7.272;2023-04-06T05:23:30;12.33;;;11.12;;
830;SDS011;397;50.564;7.272;2023-04-06T05:25:57;13.40;;;12.00;;
830;SDS011;397;50.564;7.272;2023-04-06T05:28:25;10.50;;;9.25;;
830;SDS011;397;50.564;7.272;2023-04-06T05:30:52;10.20;;;9.20;;
830;SDS011;397;50.564;7.272;2023-04-06T05:33:20;10.50;;;9.40;;
830;SDS011;397;50.564;7.272;2023-04-06T05:35:47;11.83;;;9.08;;
830;SDS011;397;50.564;7.272;2023-04-06T05:38:15;10.13;;;8.90;;
830;SDS011;397;50.564;7.272;2023-04-06T05:40:42;10.80;;;8.80;;
830;SDS011;397;50.564;7.272;2023-04-06T05:43:10;11.80;;;9.53;;
830;SDS011;397;50.564;7.272;2023-04-06T05:45:37;10.80;;;8.35;;
830;SDS011;397;50.564;7.272;2023-04-06T05:48:05;9.17;;;8.23;;
830;SDS011;397;50.564;7.272;2023-04-06T05:50:33;9.80;;;8.60;;
830;SDS011;397;50.564;7.272;2023-04-06T05:53:00;9.73;;;8.73;;
830;SDS011;397;50.564;7.272;2023-04-06T05:55:28;10.20;;;9.20;;
830;SDS011;397;50.564;7.272;2023-04-06T05:57:55;9.55;;;8.55;;
830;SDS011;397;50.564;7.272;2023-04-06T06:00:23;9.45;;;8.55;;
830;SDS011;397;50.564;7.272;2023-04-06T06:02:50;10.60;;;9.60;;
830;SDS011;397;50.564;7.272;2023-04-06T06:05:18;9.90;;;8.90;;
830;SDS011;397;50.564;7.272;2023-04-06T06:07:45;9.28;;;8.38;;
830;SDS011;397;50.564;7.272;2023-04-06T06:10:13;10.25;;;9.25;;
830;SDS011;397;50.564;7.272;2023-04-06T06:12:40;9.50;;;8.45;;
830;SDS011;397;50.564;7.272;2023-04-06T06:15:08;10.30;;;8.90;;
830;SDS011;397;50.564;7.272;2023-04-06T06:17:36;10.70;;;9.40;;
830;SDS011;397;50.564;7.272;2023-04-06T06:20:05;12.93;;;9.50;;
830;SDS011;397;50.564;7.272;2023-04-06T06:22:34;10.65;;;9.53;;
830;SDS011;397;50.564;7.272;2023-04-06T06:25:01;10.45;;;9.38;;
830;SDS011;397;50.564;7.272;2023-04-06T06:27:29;13.03;;;10.70;;
830;SDS011;397;50.564;7.272;2023-04-06T06:29:57;11.40;;;10.30;;
830;SDS011;397;50.564;7.272;2023-04-06T06:32:24;11.12;;;9.90;;
830;SDS011;397;50.564;7.272;2023-04-06T06:34:52;11.75;;;10.25;;
830;SDS011;397;50.564;7.272;2023-04-06T06:37:20;12.50;;;10.60;;
830;SDS011;397;50.564;7.272;2023-04-06T06:39:47;12.30;;;11.20;;
830;SDS011;397;50.564;7.272;2023-04-06T06:42:15;11.18;;;10.18;;
830;SDS011;397;50.564;7.272;2023-04-06T06:44:42;12.23;;;10.63;;
830;SDS011;397;50.564;7.272;2023-04-06T06:47:10;11.90;;;10.23;;
830;SDS011;397;50.564;7.272;2023-04-06T06:49:38;14.03;;;11.28;;
830;SDS011;397;50.564;7.272;2023-04-06T06:52:05;11.90;;;10.80;;
830;SDS011;397;50.564;7.272;2023-04-06T06:54:33;12.40;;;10.78;;
830;SDS011;397;50.564;7.272;2023-04-06T06:57:01;12.88;;;11.57;;
830;SDS011;397;50.564;7.272;2023-04-06T06:59:28;12.40;;;11.10;;
830;SDS011;397;50.564;7.272;2023-04-06T07:01:56;13.05;;;11.05;;
830;SDS011;397;50.564;7.272;2023-04-06T07:04:23;12.93;;;11.50;;
830;SDS011;397;50.564;7.272;2023-04-06T07:06:51;13.20;;;11.90;;
830;SDS011;397;50.564;7.272;2023-04-06T07:09:18;15.78;;;11.50;;
830;SDS011;397;50.564;7.272;2023-04-06T07:11:46;15.17;;;11.47;;
830;SDS011;397;50.564;7.272;2023-04-06T07:14:14;15.60;;;12.70;;
830;SDS011;397;50.564;7.272;2023-04-06T07:16:42;14.20;;;12.68;;
830;SDS011;397;50.564;7.272;2023-04-06T07:19:10;12.43;;;11.12;;
830;SDS011;397;50.564;7.272;2023-04-06T07:21:38;13.62;;;12.33;;
830;SDS011;397;50.564;7.272;2023-04-06T07:24:05;13.67;;;12.20;;
830;SDS011;397;50.564;7.272;2023-04-06T07:26:33;17.52;;;11.63;;
830;SDS011;397;50.564;7.272;2023-04-06T07:29:01;12.70;;;11.10;;
830;SDS011;397;50.564;7.272;2023-04-06T07:31:28;13.30;;;12.00;;
830;SDS011;397;50.564;7.272;2023-04-06T07:33:56;12.93;;;11.38;;
830;SDS011;397;50.564;7.272;2023-04-06T07:36:24;12.73;;;11.53;;
830;SDS011;397;50.564;7.272;2023-04-06T07:38:51;12.83;;;11.53;;
830;SDS011;397;50.564;7.272;2023-04-06T07:41:19;13.53;;;11.95;;
830;SDS011;397;50.564;7.272;2023-04-06T07:43:47;13.30;;;11.85;;
830;SDS011;397;50.564;7.272;2023-04-06T07:46:14;14.05;;;11.40;;
830;SDS011;397;50.564;7.272;2023-04-06T07:48:42;12.60;;;11.43;;
830;SDS011;397;50.564;7.272;2023-04-06T07:51:09;12.80;;;11.50;;
830;SDS011;397;50.564;7.272;2023-04-06T07:53:38;13.72;;;11.70;;
830;SDS011;397;50.564;7.272;2023-04-06T07:56:06;13.28;;;11.88;;
830;SDS011;397;50.564;7.272;2023-04-06T07:58:33;13.68;;;12.37;;
830;SDS011;397;50.564;7.272;2023-04-06T08:01:01;13.30;;;12.00;;
830;SDS011;397;50.564;7.272;2023-04-06T08:03:29;13.50;;;12.10;;
830;SDS011;397;50.564;7.272;2023-04-06T08:05:56;14.95;;;13.40;;
830;SDS011;397;50.564;7.272;2023-04-06T08:08:24;17.10;;;14.50;;
830;SDS011;397;50.564;7.272;2023-04-06T08:10:51;13.30;;;11.95;;
830;SDS011;397;50.564;7.272;2023-04-06T08:13:19;14.53;;;12.37;;
830;SDS011;397;50.564;7.272;2023-04-06T08:15:46;14.00;;;12.23;;
830;SDS011;397;50.564;7.272;2023-04-06T08:18:14;13.70;;;12.30;;
830;SDS011;397;50.564;7.272;2023-04-06T08:20:42;14.03;;;12.47;;
830;SDS011;397;50.564;7.272;2023-04-06T08:23:09;13.62;;;12.13;;
830;SDS011;397;50.564;7.272;2023-04-06T08:25:37;16.97;;;12.40;;
830;SDS011;397;50.564;7.272;2023-04-06T08:28:04;15.78;;;12.10;;
830;SDS011;397;50.564;7.272;2023-04-06T08:30:32;16.00;;;12.00;;
830;SDS011;397;50.564;7.272;2023-04-06T08:32:59;13.37;;;11.40;;
830;SDS011;397;50.564;7.272;2023-04-06T08:35:27;12.73;;;10.60;;
830;SDS011;397;50.564;7.272;2023-04-06T08:37:55;16.87;;;11.53;;
830;SDS011;397;50.564;7.272;2023-04-06T08:40:23;12.67;;;10.57;;
830;SDS011;397;50.564;7.272;2023-04-06T08:42:54;13.30;;;11.70;;
830;SDS011;397;50.564;7.272;2023-04-06T08:45:23;12.80;;;11.50;;
830;SDS011;397;50.564;7.272;2023-04-06T08:47:51;13.43;;;11.13;;
830;SDS011;397;50.564;7.272;2023-04-06T08:50:19;13.60;;;11.07;;
830;SDS011;397;50.564;7.272;2023-04-06T08:52:48;14.50;;;11.40;;
830;SDS011;397;50.564;7.272;2023-04-06T08:55:15;14.80;;;10.73;;
830;SDS011;397;50.564;7.272;2023-04-06T08:57:43;17.40;;;12.17;;
830;SDS011;397;50.564;7.272;2023-04-06T09:00:12;14.93;;;11.47;;
830;SDS011;397;50.564;7.272;2023-04-06T09:02:44;14.67;;;11.53;;
830;SDS011;397;50.564;7.272;2023-04-06T09:05:11;14.37;;;12.87;;
830;SDS011;397;50.564;7.272;2023-04-06T09:07:39;17.80;;;12.13;;
830;SDS011;397;50.564;7.272;2023-04-06T09:10:07;15.47;;;11.43;;
830;SDS011;397;50.564;7.272;2023-04-06T09:12:35;14.80;;;13.10;;
830;SDS011;397;50.564;7.272;2023-04-06T09:15:02;16.90;;;12.43;;
830;SDS011;397;50.564;7.272;2023-04-06T09:17:31;18.10;;;12.33;;
830;SDS011;397;50.564;7.272;2023-04-06T09:20:02;13.07;;;11.33;;
830;SDS011;397;50.564;7.272;2023-04-06T09:22:36;14.87;;;12.00;;
830;SDS011;397;50.564;7.272;2023-04-06T09:25:05;14.97;;;11.30;;
830;SDS011;397;50.564;7.272;2023-04-06T09:27:37;13.37;;;10.03;;
830;SDS011;397;50.564;7.272;2023-04-06T09:30:05;16.50;;;11.43;;
830;SDS011;397;50.564;7.272;2023-04-06T09:32:47;13.50;;;11.00;;
830;SDS011;397;50.564;7.272;2023-04-06T09:35:16;14.70;;;12.30;;
830;SDS011;397;50.564;7.272;2023-04-06T09:37:50;13.80;;;12.37;;
830;SDS011;397;50.564;7.272;2023-04-06T09:40:16;18.70;;;12.00;;
830;SDS011;397;50.564;7.272;2023-04-06T09:42:45;13.67;;;11.10;;
830;SDS011;397;50.564;7.272;2023-04-06T09:45:13;18.33;;;12.50;;
830;SDS011;397;50.564;7.272;2023-04-06T09:47:42;16.80;;;12.10;;
830;SDS011;397;50.564;7.272;2023-04-06T09:50:11;14.07;;;11.23;;
830;SDS011;397;50.564;7.272;2023-04-06T09:55:32;14.43;;;11.67;;
830;SDS011;397;50.564;7.272;2023-04-06T09:58:04;11.83;;;10.70;;
830;SDS011;397;50.564;7.272;2023-04-06T10:03:22;17.27;;;12.00;;
830;SDS011;397;50.564;7.272;2023-04-06T10:06:03;14.63;;;11.23;;
830;SDS011;397;50.564;7.272;2023-04-06T10:08:32;14.33;;;11.27;;
830;SDS011;397;50.564;7.272;2023-04-06T10:11:01;15.80;;;11.23;;
830;SDS011;397;50.564;7.272;2023-04-06T10:13:29;14.30;;;11.43;;
830;SDS011;397;50.564;7.272;2023-04-06T10:15:56;12.70;;;10.07;;
830;SDS011;397;50.564;7.272;2023-04-06T10:18:27;13.93;;;10.53;;
830;SDS011;397;50.564;7.272;2023-04-06T10:21:04;18.70;;;11.53;;
830;SDS011;397;50.564;7.272;2023-04-06T10:23:35;14.87;;;10.03;;
830;SDS011;397;50.564;7.272;2023-04-06T10:26:05;14.73;;;11.17;;
830;SDS011;397;50.564;7.272;2023-04-06T10:28:34;13.87;;;10.10;;
830;SDS011;397;50.564;7.272;2023-04-06T10:31:05;14.23;;;12.57;;
830;SDS011;397;50.564;7.272;2023-04-06T10:33:33;18.87;;;12.53;;
830;SDS011;397;50.564;7.272;2023-04-06T10:36:22;19.77;;;12.87;;
830;SDS011;397;50.564;7.272;2023-04-06T10:38:41;18.20;;;11.00;;
830;SDS011;397;50.564;7.272;2023-04-06T10:41:10;14.63;;;10.93;;
830;SDS011;397;50.564;7.272;2023-04-06T10:43:39;14.50;;;10.87;;
830;SDS011;397;50.564;7.272;2023-04-06T10:46:07;11.73;;;9.73;;
830;SDS011;397;50.564;7.272;2023-04-06T10:48:40;15.90;;;9.37;;
830;SDS011;397;50.564;7.272;2023-04-06T10:51:13;15.23;;;10.60;;
830;SDS011;397;50.564;7.272;2023-04-06T10:53:43;12.97;;;9.47;;
830;SDS011;397;50.564;7.272;2023-04-06T10:56:14;15.20;;;9.67;;
830;SDS011;397;50.564;7.272;2023-04-06T11:01:15;14.27;;;10.03;;
830;SDS011;397;50.564;7.272;2023-04-06T11:03:44;12.20;;;9.30;;
830;SDS011;397;50.564;7.272;2023-04-06T11:06:22;12.50;;;10.50;;
830;SDS011;397;50.564;7.272;2023-04-06T11:08:57;11.93;;;8.90;;
830;SDS011;397;50.564;7.272;2023-04-06T11:11:25;12.87;;;9.27;;
830;SDS011;397;50.564;7.272;2023-04-06T11:13:57;10.60;;;7.87;;
830;SDS011;397;50.564;7.272;2023-04-06T11:16:26;10.70;;;9.60;;
830;SDS011;397;50.564;7.272;2023-04-06T11:19:01;13.20;;;9.50;;
830;SDS011;397;50.564;7.272;2023-04-06T11:21:35;10.97;;;9.27;;
830;SDS011;397;50.564;7.272;2023-04-06T11:24:19;12.07;;;9.33;;
830;SDS011;397;50.564;7.272;2023-04-06T11:26:48;10.50;;;8.80;;
830;SDS011;397;50.564;7.272;2023-04-06T11:29:18;12.40;;;9.13;;
830;SDS011;397;50.564;7.272;2023-04-06T11:31:48;12.57;;;9.53;;
830;SDS011;397;50.564;7.272;2023-04-06T11:34:22;11.10;;;9.93;;
830;SDS011;397;50.564;7.272;2023-04-06T11:36:55;9.60;;;8.40;;
830;SDS011;397;50.564;7.272;2023-04-06T11:39:28;10.77;;;9.60;;
830;SDS011;397;50.564;7.272;2023-04-06T11:42:00;10.80;;;9.10;;
830;SDS011;397;50.564;7.272;2023-04-06T11:47:00;11.70;;;9.03;;
830;SDS011;397;50.564;7.272;2023-04-06T11:49:28;12.20;;;8.33;;
830;SDS011;397;50.564;7.272;2023-04-06T11:51:57;10.23;;;8.83;;
830;SDS011;397;50.564;7.272;2023-04-06T11:54:32;12.40;;;9.67;;
830;SDS011;397;50.564;7.272;2023-04-06T11:57:01;11.63;;;9.40;;
830;SDS011;397;50.564;7.272;2023-04-06T11:59:29;12.63;;;9.80;;
830;SDS011;397;50.564;7.272;2023-04-06T12:01:57;10.50;;;8.97;;
830;SDS011;397;50.564;7.272;2023-04-06T12:04:25;11.37;;;9.30;;
830;SDS011;397;50.564;7.272;2023-04-06T12:06:52;13.53;;;10.00;;
830;SDS011;397;50.564;7.272;2023-04-06T12:09:19;14.20;;;9.47;;
830;SDS011;397;50.564;7.272;2023-04-06T12:11:47;14.03;;;10.80;;
830;SDS011;397;50.564;7.272;2023-04-06T12:14:15;12.40;;;9.07;;
830;SDS011;397;50.564;7.272;2023-04-06T12:16:42;11.67;;;9.10;;
830;SDS011;397;50.564;7.272;2023-04-06T12:19:10;11.00;;;9.10;;
830;SDS011;397;50.564;7.272;2023-04-06T12:21:38;13.20;;;9.80;;
830;SDS011;397;50.564;7.272;2023-04-06T12:24:06;13.43;;;10.50;;
830;SDS011;397;50.564;7.272;2023-04-06T12:26:34;17.50;;;11.10;;
830;SDS011;397;50.564;7.272;2023-04-06T12:29:02;10.47;;;9.40;;
830;SDS011;397;50.564;7.272;2023-04-06T12:31:36;11.90;;;9.60;;
830;SDS011;397;50.564;7.272;2023-04-06T12:34:08;13.60;;;9.47;;
830;SDS011;397;50.564;7.272;2023-04-06T12:36:36;11.63;;;9.23;;
830;SDS011;397;50.564;7.272;2023-04-06T12:39:04;12.80;;;9.70;;
830;SDS011;397;50.564;7.272;2023-04-06T12:41:32;10.03;;;8.80;;
830;SDS011;397;50.564;7.272;2023-04-06T12:44:00;11.47;;;9.50;;
830;SDS011;397;50.564;7.272;2023-04-06T12:46:28;11.10;;;8.20;;
830;SDS011;397;50.564;7.272;2023-04-06T12:48:56;9.43;;;8.00;;
830;SDS011;397;50.564;7.272;2023-04-06T12:51:27;12.90;;;9.03;;
830;SDS011;397;50.564;7.272;2023-04-06T12:53:56;11.00;;;8.23;;
830;SDS011;397;50.564;7.272;2023-04-06T12:56:24;9.43;;;7.60;;
830;SDS011;397;50.564;7.272;2023-04-06T12:58:52;12.00;;;8.40;;
830;SDS011;397;50.564;7.272;2023-04-06T13:01:22;10.90;;;9.17;;
830;SDS011;397;50.564;7.272;2023-04-06T13:03:50;12.13;;;9.90;;
830;SDS011;397;50.564;7.272;2023-04-06T13:06:18;10.93;;;9.13;;
830;SDS011;397;50.564;7.272;2023-04-06T13:08:45;11.33;;;9.63;;
830;SDS011;397;50.564;7.272;2023-04-06T13:11:14;14.20;;;11.80;;
830;SDS011;397;50.564;7.272;2023-04-06T13:13:42;9.50;;;7.60;;
830;SDS011;397;50.564;7.272;2023-04-06T13:16:09;12.03;;;7.53;;
830;SDS011;397;50.564;7.272;2023-04-06T13:18:37;9.47;;;7.80;;
830;SDS011;397;50.564;7.272;2023-04-06T13:21:05;9.60;;;8.00;;
830;SDS011;397;50.564;7.272;2023-04-06T13:23:33;10.43;;;7.87;;
830;SDS011;397;50.564;7.272;2023-04-06T13:26:02;8.10;;;7.30;;
830;SDS011;397;50.564;7.272;2023-04-06T13:28:32;10.47;;;7.90;;
830;SDS011;397;50.564;7.272;2023-04-06T13:31:01;8.27;;;6.80;;
830;SDS011;397;50.564;7.272;2023-04-06T13:33:29;7.53;;;6.20;;
830;SDS011;397;50.564;7.272;2023-04-06T13:35:57;12.07;;;5.87;;
830;SDS011;397;50.564;7.272;2023-04-06T13:38:25;5.57;;;4.67;;
830;SDS011;397;50.564;7.272;2023-04-06T13:40:53;8.03;;;5.80;;
830;SDS011;397;50.564;7.272;2023-04-06T13:43:21;7.97;;;5.80;;
830;SDS011;397;50.564;7.272;2023-04-06T13:45:51;6.00;;;4.83;;
830;SDS011;397;50.564;7.272;2023-04-06T13:48:23;7.50;;;5.20;;
830;SDS011;397;50.564;7.272;2023-04-06T13:50:52;8.50;;;5.77;;
830;SDS011;397;50.564;7.272;2023-04-06T13:53:19;9.10;;;5.93;;
830;SDS011;397;50.564;7.272;2023-04-06T13:55:53;7.50;;;6.33;;
830;SDS011;397;50.564;7.272;2023-04-06T13:58:21;7.80;;;6.57;;
830;SDS011;397;50.564;7.272;2023-04-06T14:00:49;6.50;;;5.60;;
830;SDS011;397;50.564;7.272;2023-04-06T14:03:16;7.03;;;5.63;;
830;SDS011;397;50.564;7.272;2023-04-06T14:05:44;7.50;;;5.40;;
830;SDS011;397;50.564;7.272;2023-04-06T14:08:12;5.97;;;4.73;;
830;SDS011;397;50.564;7.272;2023-04-06T14:10:40;7.33;;;4.60;;
830;SDS011;397;50.564;7.272;2023-04-06T14:13:08;6.43;;;4.83;;
830;SDS011;397;50.564;7.272;2023-04-06T14:15:36;7.40;;;5.20;;
830;SDS011;397;50.564;7.272;2023-04-06T14:18:03;9.20;;;5.73;;
830;SDS011;397;50.564;7.272;2023-04-06T14:20:31;9.57;;;8.43;;
830;SDS011;397;50.564;7.272;2023-04-06T14:23:00;12.03;;;9.67;;
830;SDS011;397;50.564;7.272;2023-04-06T14:25:27;8.80;;;7.83;;
830;SDS011;397;50.564;7.272;2023-04-06T14:27:57;9.37;;;6.97;;
830;SDS011;397;50.564;7.272;2023-04-06T14:30:24;7.90;;;6.80;;
830;SDS011;397;50.564;7.272;2023-04-06T14:32:56;8.87;;;7.57;;
830;SDS011;397;50.564;7.272;2023-04-06T14:35:25;10.00;;;7.20;;
830;SDS011;397;50.564;7.272;2023-04-06T14:37:53;8.70;;;7.57;;
830;SDS011;397;50.564;7.272;2023-04-06T14:40:24;9.90;;;8.00;;
830;SDS011;397;50.564;7.272;2023-04-06T14:42:51;10.30;;;7.50;;
830;SDS011;397;50.564;7.272;2023-04-06T14:45:20;9.07;;;7.87;;
830;SDS011;397;50.564;7.272;2023-04-06T14:47:48;8.77;;;7.83;;
830;SDS011;397;50.564;7.272;2023-04-06T14:50:16;9.20;;;7.87;;
830;SDS011;397;50.564;7.272;2023-04-06T14:52:43;8.97;;;7.27;;
830;SDS011;397;50.564;7.272;2023-04-06T14:55:12;10.10;;;8.20;;
830;SDS011;397;50.564;7.272;2023-04-06T14:57:40;9.17;;;8.23;;
830;SDS011;397;50.564;7.272;2023-04-06T15:00:07;8.43;;;7.13;;
830;SDS011;397;50.564;7.272;2023-04-06T15:02:36;10.23;;;7.57;;
830;SDS011;397;50.564;7.272;2023-04-06T15:05:03;12.40;;;6.90;;
830;SDS011;397;50.564;7.272;2023-04-06T15:07:32;9.00;;;6.43;;
830;SDS011;397;50.564;7.272;2023-04-06T15:10:00;7.37;;;6.57;;
830;SDS011;397;50.564;7.272;2023-04-06T15:12:27;9.23;;;7.53;;
830;SDS011;397;50.564;7.272;2023-04-06T15:14:55;9.40;;;8.27;;
830;SDS011;397;50.564;7.272;2023-04-06T15:17:23;10.60;;;7.10;;
830;SDS011;397;50.564;7.272;2023-04-06T15:19:52;13.30;;;7.70;;
830;SDS011;397;50.564;7.272;2023-04-06T15:22:20;11.60;;;9.37;;
830;SDS011;397;50.564;7.272;2023-04-06T15:24:47;16.70;;;13.00;;
830;SDS011;397;50.564;7.272;2023-04-06T15:27:15;16.33;;;11.80;;
830;SDS011;397;50.564;7.272;2023-04-06T15:29:42;17.13;;;11.40;;
830;SDS011;397;50.564;7.272;2023-04-06T15:32:10;8.93;;;8.03;;
830;SDS011;397;50.564;7.272;2023-04-06T15:34:38;10.33;;;8.50;;
830;SDS011;397;50.564;7.272;2023-04-06T15:37:06;12.07;;;8.60;;
830;SDS011;397;50.564;7.272;2023-04-06T15:39:34;11.00;;;8.70;;
830;SDS011;397;50.564;7.272;2023-04-06T15:42:02;11.30;;;9.57;;